TAF LFPM
METAR LFPM
LFPM 091100Z AUTO 22012KT CAVOK 05/02 Q1008=
LFPM 091030Z AUTO 22013KT CAVOK 04/02 Q1008=
LFPM 091000Z AUTO 22010KT CAVOK 03/02 Q1009=
LFPM 090930Z AUTO 22011KT CAVOK 02/01 Q1008=
LFPM 090900Z AUTO 21010KT CAVOK 01/01 Q1008=
WC LFPM
WS LFPM
WV LFPM